sensor_id;sensor_type;location;lat;lon;timestamp;temperature;humidity
2997;DHT22;1508;48.744;9.110;2022-08-19T00:02:09;20.00;99.90
2997;DHT22;1508;48.744;9.110;2022-08-19T00:04:55;20.00;99.90
2997;DHT22;1508;48.744;9.110;2022-08-19T00:07:42;19.90;99.90
2997;DHT22;1508;48.744;9.110;2022-08-19T00:10:28;19.90;99.90
2997;DHT22;1508;48.744;9.110;2022-08-19T00:13:14;19.90;99.90
2997;DHT22;1508;48.744;9.110;2022-08-19T00:16:00;19.80;99.90
2997;DHT22;1508;48.744;9.110;2022-08-19T00:18:47;19.90;99.90
2997;DHT22;1508;48.744;9.110;2022-08-19T00:21:33;19.80;99.90
2997;DHT22;1508;48.744;9.110;2022-08-19T00:24:19;19.80;99.90
2997;DHT22;1508;48.744;9.110;2022-08-19T00:27:05;19.90;99.90
2997;DHT22;1508;48.744;9.110;2022-08-19T00:29:51;19.80;99.90
2997;DHT22;1508;48.744;9.110;2022-08-19T00:32:38;19.80;99.90
2997;DHT22;1508;48.744;9.110;2022-08-19T00:35:24;19.80;99.90
2997;DHT22;1508;48.744;9.110;2022-08-19T00:38:10;19.80;99.90
2997;DHT22;1508;48.744;9.110;2022-08-19T00:40:56;19.70;99.90
2997;DHT22;1508;48.744;9.110;2022-08-19T00:43:42;19.70;99.90
2997;DHT22;1508;48.744;9.110;2022-08-19T00:46:29;19.80;99.90
2997;DHT22;1508;48.744;9.110;2022-08-19T00:49:24;19.80;99.90
2997;DHT22;1508;48.744;9.110;2022-08-19T00:52:19;19.70;99.90
2997;DHT22;1508;48.744;9.110;2022-08-19T00:55:08;19.80;99.90
2997;DHT22;1508;48.744;9.110;2022-08-19T00:57:57;19.80;99.90
2997;DHT22;1508;48.744;9.110;2022-08-19T01:00:45;19.80;99.90
2997;DHT22;1508;48.744;9.110;2022-08-19T01:03:31;19.80;99.90
2997;DHT22;1508;48.744;9.110;2022-08-19T01:06:17;19.80;99.90
2997;DHT22;1508;48.744;9.110;2022-08-19T01:09:04;19.70;99.90
2997;DHT22;1508;48.744;9.110;2022-08-19T01:11:51;19.70;99.90
2997;DHT22;1508;48.744;9.110;2022-08-19T01:14:39;19.70;99.90
2997;DHT22;1508;48.744;9.110;2022-08-19T01:17:25;19.70;99.90
2997;DHT22;1508;48.744;9.110;2022-08-19T01:20:16;19.60;99.90
2997;DHT22;1508;48.744;9.110;2022-08-19T01:23:03;19.60;99.90
2997;DHT22;1508;48.744;9.110;2022-08-19T01:25:51;19.60;99.90
2997;DHT22;1508;48.744;9.110;2022-08-19T01:28:38;19.60;99.90
2997;DHT22;1508;48.744;9.110;2022-08-19T01:31:25;19.60;99.90
2997;DHT22;1508;48.744;9.110;2022-08-19T01:34:11;19.60;99.90
2997;DHT22;1508;48.744;9.110;2022-08-19T01:36:57;19.50;99.90
2997;DHT22;1508;48.744;9.110;2022-08-19T01:39:43;19.50;99.90
2997;DHT22;1508;48.744;9.110;2022-08-19T01:42:29;19.50;99.90
2997;DHT22;1508;48.744;9.110;2022-08-19T01:45:16;19.50;99.90
2997;DHT22;1508;48.744;9.110;2022-08-19T01:48:03;19.50;99.90
2997;DHT22;1508;48.744;9.110;2022-08-19T01:50:49;19.50;99.90
2997;DHT22;1508;48.744;9.110;2022-08-19T01:53:35;19.50;99.90
2997;DHT22;1508;48.744;9.110;2022-08-19T01:56:22;19.50;99.90
2997;DHT22;1508;48.744;9.110;2022-08-19T01:59:10;19.50;99.90
2997;DHT22;1508;48.744;9.110;2022-08-19T02:01:57;19.50;99.90
2997;DHT22;1508;48.744;9.110;2022-08-19T02:04:43;19.50;99.90
2997;DHT22;1508;48.744;9.110;2022-08-19T02:07:29;19.50;99.90
2997;DHT22;1508;48.744;9.110;2022-08-19T02:10:18;19.50;99.90
2997;DHT22;1508;48.744;9.110;2022-08-19T02:13:04;19.50;99.90
2997;DHT22;1508;48.744;9.110;2022-08-19T02:15:50;19.50;99.90
2997;DHT22;1508;48.744;9.110;2022-08-19T02:18:36;19.40;99.90
2997;DHT22;1508;48.744;9.110;2022-08-19T02:21:23;19.40;99.90
2997;DHT22;1508;48.744;9.110;2022-08-19T02:24:09;19.40;99.90
2997;DHT22;1508;48.744;9.110;2022-08-19T02:26:55;19.30;99.90
2997;DHT22;1508;48.744;9.110;2022-08-19T02:29:41;19.30;99.90
2997;DHT22;1508;48.744;9.110;2022-08-19T02:32:27;19.30;99.90
2997;DHT22;1508;48.744;9.110;2022-08-19T02:35:14;19.30;99.90
2997;DHT22;1508;48.744;9.110;2022-08-19T02:38:00;19.30;99.90
2997;DHT22;1508;48.744;9.110;2022-08-19T02:41:03;19.30;99.90
2997;DHT22;1508;48.744;9.110;2022-08-19T02:43:49;19.20;99.90
2997;DHT22;1508;48.744;9.110;2022-08-19T02:46:35;19.30;99.90
2997;DHT22;1508;48.744;9.110;2022-08-19T02:49:21;19.20;99.90
2997;DHT22;1508;48.744;9.110;2022-08-19T02:52:06;19.30;99.90
2997;DHT22;1508;48.744;9.110;2022-08-19T02:54:52;19.20;99.90
2997;DHT22;1508;48.744;9.110;2022-08-19T02:57:38;19.30;99.90
2997;DHT22;1508;48.744;9.110;2022-08-19T03:00:24;19.20;99.90
2997;DHT22;1508;48.744;9.110;2022-08-19T03:03:10;19.20;99.90
2997;DHT22;1508;48.744;9.110;2022-08-19T03:06:07;19.20;99.90
2997;DHT22;1508;48.744;9.110;2022-08-19T03:08:54;19.20;99.90
2997;DHT22;1508;48.744;9.110;2022-08-19T03:11:40;19.20;99.90
2997;DHT22;1508;48.744;9.110;2022-08-19T03:14:26;19.10;99.90
2997;DHT22;1508;48.744;9.110;2022-08-19T03:17:12;19.10;99.90
2997;DHT22;1508;48.744;9.110;2022-08-19T03:19:58;19.10;99.90
2997;DHT22;1508;48.744;9.110;2022-08-19T03:22:44;19.20;99.90
2997;DHT22;1508;48.744;9.110;2022-08-19T03:25:30;19.10;99.90
2997;DHT22;1508;48.744;9.110;2022-08-19T03:28:16;19.20;99.90
2997;DHT22;1508;48.744;9.110;2022-08-19T03:31:08;19.20;99.90
2997;DHT22;1508;48.744;9.110;2022-08-19T03:33:54;19.20;99.90
2997;DHT22;1508;48.744;9.110;2022-08-19T03:36:40;19.10;99.90
2997;DHT22;1508;48.744;9.110;2022-08-19T03:39:26;19.10;99.90
2997;DHT22;1508;48.744;9.110;2022-08-19T03:42:12;19.10;99.90
2997;DHT22;1508;48.744;9.110;2022-08-19T03:44:58;19.10;99.90
2997;DHT22;1508;48.744;9.110;2022-08-19T03:47:44;19.10;99.90
2997;DHT22;1508;48.744;9.110;2022-08-19T03:50:30;19.20;99.90
2997;DHT22;1508;48.744;9.110;2022-08-19T03:53:16;19.10;99.90
2997;DHT22;1508;48.744;9.110;2022-08-19T03:56:02;19.10;99.90
2997;DHT22;1508;48.744;9.110;2022-08-19T03:58:48;19.10;99.90
2997;DHT22;1508;48.744;9.110;2022-08-19T04:01:34;19.10;99.90
2997;DHT22;1508;48.744;9.110;2022-08-19T04:04:20;19.10;99.90
2997;DHT22;1508;48.744;9.110;2022-08-19T04:07:06;19.00;99.90
2997;DHT22;1508;48.744;9.110;2022-08-19T04:09:52;19.00;99.90
2997;DHT22;1508;48.744;9.110;2022-08-19T04:12:38;19.00;99.90
2997;DHT22;1508;48.744;9.110;2022-08-19T04:15:24;19.00;99.90
2997;DHT22;1508;48.744;9.110;2022-08-19T04:18:10;18.90;99.90
2997;DHT22;1508;48.744;9.110;2022-08-19T04:20:56;18.90;99.90
2997;DHT22;1508;48.744;9.110;2022-08-19T04:23:42;18.90;99.90
2997;DHT22;1508;48.744;9.110;2022-08-19T04:26:30;18.90;99.90
2997;DHT22;1508;48.744;9.110;2022-08-19T04:29:19;18.90;99.90
2997;DHT22;1508;48.744;9.110;2022-08-19T04:32:05;18.90;99.90
2997;DHT22;1508;48.744;9.110;2022-08-19T04:34:51;18.90;99.90
2997;DHT22;1508;48.744;9.110;2022-08-19T04:37:38;18.90;99.90
2997;DHT22;1508;48.744;9.110;2022-08-19T04:40:24;18.80;99.90
2997;DHT22;1508;48.744;9.110;2022-08-19T04:43:10;18.80;99.90
2997;DHT22;1508;48.744;9.110;2022-08-19T04:45:55;18.90;99.90
2997;DHT22;1508;48.744;9.110;2022-08-19T04:48:41;18.90;99.90
2997;DHT22;1508;48.744;9.110;2022-08-19T04:51:27;18.90;99.90
2997;DHT22;1508;48.744;9.110;2022-08-19T04:54:14;18.80;99.90
2997;DHT22;1508;48.744;9.110;2022-08-19T04:57:00;18.80;99.90
2997;DHT22;1508;48.744;9.110;2022-08-19T04:59:46;18.90;99.90
2997;DHT22;1508;48.744;9.110;2022-08-19T05:02:32;18.90;99.90
2997;DHT22;1508;48.744;9.110;2022-08-19T05:05:18;18.90;99.90
2997;DHT22;1508;48.744;9.110;2022-08-19T05:08:04;18.90;99.90
2997;DHT22;1508;48.744;9.110;2022-08-19T05:10:51;18.80;99.90
2997;DHT22;1508;48.744;9.110;2022-08-19T05:13:37;18.90;99.90
2997;DHT22;1508;48.744;9.110;2022-08-19T05:16:25;18.90;99.90
2997;DHT22;1508;48.744;9.110;2022-08-19T05:19:11;18.90;99.90
2997;DHT22;1508;48.744;9.110;2022-08-19T05:21:57;19.00;99.90
2997;DHT22;1508;48.744;9.110;2022-08-19T05:24:43;19.10;99.90
2997;DHT22;1508;48.744;9.110;2022-08-19T05:27:28;19.10;99.90
2997;DHT22;1508;48.744;9.110;2022-08-19T05:30:15;19.10;99.90
2997;DHT22;1508;48.744;9.110;2022-08-19T05:33:01;19.20;99.90
2997;DHT22;1508;48.744;9.110;2022-08-19T05:35:48;19.20;99.90
2997;DHT22;1508;48.744;9.110;2022-08-19T05:38:34;19.20;99.90
2997;DHT22;1508;48.744;9.110;2022-08-19T05:41:21;19.20;99.90
2997;DHT22;1508;48.744;9.110;2022-08-19T05:44:07;19.20;99.90
2997;DHT22;1508;48.744;9.110;2022-08-19T05:46:53;19.20;99.90
2997;DHT22;1508;48.744;9.110;2022-08-19T05:49:39;19.10;99.90
2997;DHT22;1508;48.744;9.110;2022-08-19T05:52:25;19.20;99.90
2997;DHT22;1508;48.744;9.110;2022-08-19T05:55:11;19.20;99.90
2997;DHT22;1508;48.744;9.110;2022-08-19T05:57:57;19.20;99.90
2997;DHT22;1508;48.744;9.110;2022-08-19T06:00:43;19.20;99.90
2997;DHT22;1508;48.744;9.110;2022-08-19T06:03:30;19.20;99.90
2997;DHT22;1508;48.744;9.110;2022-08-19T06:06:18;19.20;99.90
2997;DHT22;1508;48.744;9.110;2022-08-19T06:09:06;19.20;99.90
2997;DHT22;1508;48.744;9.110;2022-08-19T06:11:54;19.10;99.90
2997;DHT22;1508;48.744;9.110;2022-08-19T06:14:40;19.10;99.90
2997;DHT22;1508;48.744;9.110;2022-08-19T06:17:26;19.20;99.90
2997;DHT22;1508;48.744;9.110;2022-08-19T06:20:14;19.10;99.90
2997;DHT22;1508;48.744;9.110;2022-08-19T06:23:00;19.10;99.90
2997;DHT22;1508;48.744;9.110;2022-08-19T06:25:45;19.10;99.90
2997;DHT22;1508;48.744;9.110;2022-08-19T06:28:31;19.10;99.90
2997;DHT22;1508;48.744;9.110;2022-08-19T06:31:22;19.10;99.90
2997;DHT22;1508;48.744;9.110;2022-08-19T06:34:09;19.20;99.90
2997;DHT22;1508;48.744;9.110;2022-08-19T06:36:56;19.30;99.90
2997;DHT22;1508;48.744;9.110;2022-08-19T06:39:43;19.40;99.90
2997;DHT22;1508;48.744;9.110;2022-08-19T06:42:29;19.40;99.90
2997;DHT22;1508;48.744;9.110;2022-08-19T06:45:15;19.50;99.90
2997;DHT22;1508;48.744;9.110;2022-08-19T06:48:01;19.50;99.90
2997;DHT22;1508;48.744;9.110;2022-08-19T06:50:47;19.60;99.90
2997;DHT22;1508;48.744;9.110;2022-08-19T06:53:33;19.40;99.90
2997;DHT22;1508;48.744;9.110;2022-08-19T06:56:25;19.50;99.90
2997;DHT22;1508;48.744;9.110;2022-08-19T06:59:18;19.40;99.90
2997;DHT22;1508;48.744;9.110;2022-08-19T07:02:06;19.50;99.90
2997;DHT22;1508;48.744;9.110;2022-08-19T07:04:52;19.50;99.90
2997;DHT22;1508;48.744;9.110;2022-08-19T07:07:38;19.50;99.90
2997;DHT22;1508;48.744;9.110;2022-08-19T07:10:24;19.50;99.90
2997;DHT22;1508;48.744;9.110;2022-08-19T07:13:10;19.50;99.90
2997;DHT22;1508;48.744;9.110;2022-08-19T07:15:56;19.40;99.90
2997;DHT22;1508;48.744;9.110;2022-08-19T07:18:41;19.40;99.90
2997;DHT22;1508;48.744;9.110;2022-08-19T07:21:28;19.30;99.90
2997;DHT22;1508;48.744;9.110;2022-08-19T07:24:15;19.30;99.90
2997;DHT22;1508;48.744;9.110;2022-08-19T07:27:04;19.20;99.90
2997;DHT22;1508;48.744;9.110;2022-08-19T07:29:50;19.10;99.90
2997;DHT22;1508;48.744;9.110;2022-08-19T07:32:36;19.10;99.90
2997;DHT22;1508;48.744;9.110;2022-08-19T07:35:23;19.10;99.90
2997;DHT22;1508;48.744;9.110;2022-08-19T07:38:08;19.10;99.90
2997;DHT22;1508;48.744;9.110;2022-08-19T07:40:54;19.10;99.90
2997;DHT22;1508;48.744;9.110;2022-08-19T07:43:40;19.10;99.90
2997;DHT22;1508;48.744;9.110;2022-08-19T07:46:26;19.20;99.90
2997;DHT22;1508;48.744;9.110;2022-08-19T07:49:12;19.30;99.90
2997;DHT22;1508;48.744;9.110;2022-08-19T07:52:03;19.40;99.90
2997;DHT22;1508;48.744;9.110;2022-08-19T07:54:49;19.40;99.90
2997;DHT22;1508;48.744;9.110;2022-08-19T07:57:35;19.50;99.90
2997;DHT22;1508;48.744;9.110;2022-08-19T08:00:21;19.50;99.90
2997;DHT22;1508;48.744;9.110;2022-08-19T08:03:06;19.50;99.90
2997;DHT22;1508;48.744;9.110;2022-08-19T08:05:52;19.50;99.90
2997;DHT22;1508;48.744;9.110;2022-08-19T08:08:38;19.50;99.90
2997;DHT22;1508;48.744;9.110;2022-08-19T08:11:24;19.60;99.90
2997;DHT22;1508;48.744;9.110;2022-08-19T08:14:10;19.60;99.90
2997;DHT22;1508;48.744;9.110;2022-08-19T08:16:57;19.60;99.90
2997;DHT22;1508;48.744;9.110;2022-08-19T08:19:44;19.50;99.90
2997;DHT22;1508;48.744;9.110;2022-08-19T08:22:30;19.50;99.90
2997;DHT22;1508;48.744;9.110;2022-08-19T08:25:19;19.60;99.90
2997;DHT22;1508;48.744;9.110;2022-08-19T08:28:05;19.70;99.90
2997;DHT22;1508;48.744;9.110;2022-08-19T08:30:51;19.60;99.90
2997;DHT22;1508;48.744;9.110;2022-08-19T08:33:37;19.60;99.90
2997;DHT22;1508;48.744;9.110;2022-08-19T08:36:23;19.60;99.90
2997;DHT22;1508;48.744;9.110;2022-08-19T08:39:10;19.60;99.90
2997;DHT22;1508;48.744;9.110;2022-08-19T08:42:13;19.50;99.90
2997;DHT22;1508;48.744;9.110;2022-08-19T08:45:08;19.50;99.90
2997;DHT22;1508;48.744;9.110;2022-08-19T08:47:58;19.60;99.90
2997;DHT22;1508;48.744;9.110;2022-08-19T08:50:48;19.60;99.90
2997;DHT22;1508;48.744;9.110;2022-08-19T08:53:34;19.70;99.90
2997;DHT22;1508;48.744;9.110;2022-08-19T08:56:21;19.70;99.90
2997;DHT22;1508;48.744;9.110;2022-08-19T08:59:12;19.70;99.90
2997;DHT22;1508;48.744;9.110;2022-08-19T09:02:02;19.80;99.90
2997;DHT22;1508;48.744;9.110;2022-08-19T09:04:48;19.90;99.90
2997;DHT22;1508;48.744;9.110;2022-08-19T09:07:52;19.90;99.90
2997;DHT22;1508;48.744;9.110;2022-08-19T09:10:50;19.90;99.90
2997;DHT22;1508;48.744;9.110;2022-08-19T09:16:47;19.80;99.90
2997;DHT22;1508;48.744;9.110;2022-08-19T09:19:34;19.90;99.90
2997;DHT22;1508;48.744;9.110;2022-08-19T09:22:20;20.10;99.90
2997;DHT22;1508;48.744;9.110;2022-08-19T09:25:09;20.10;99.90
2997;DHT22;1508;48.744;9.110;2022-08-19T09:27:56;20.10;99.90
2997;DHT22;1508;48.744;9.110;2022-08-19T09:30:41;20.10;99.90
2997;DHT22;1508;48.744;9.110;2022-08-19T09:33:27;20.20;99.90
2997;DHT22;1508;48.744;9.110;2022-08-19T09:36:16;20.20;99.90
2997;DHT22;1508;48.744;9.110;2022-08-19T09:39:03;20.30;99.90
2997;DHT22;1508;48.744;9.110;2022-08-19T09:41:50;20.30;99.90
2997;DHT22;1508;48.744;9.110;2022-08-19T09:44:36;20.50;99.90
2997;DHT22;1508;48.744;9.110;2022-08-19T09:47:21;20.50;99.90
2997;DHT22;1508;48.744;9.110;2022-08-19T09:50:10;20.50;99.90
2997;DHT22;1508;48.744;9.110;2022-08-19T09:52:56;20.50;99.90
2997;DHT22;1508;48.744;9.110;2022-08-19T09:55:43;20.50;99.90
2997;DHT22;1508;48.744;9.110;2022-08-19T09:58:29;20.60;99.90
2997;DHT22;1508;48.744;9.110;2022-08-19T10:01:21;20.70;99.90
2997;DHT22;1508;48.744;9.110;2022-08-19T10:04:07;20.60;99.90
2997;DHT22;1508;48.744;9.110;2022-08-19T10:06:55;20.60;99.90
2997;DHT22;1508;48.744;9.110;2022-08-19T10:09:41;20.60;99.90
2997;DHT22;1508;48.744;9.110;2022-08-19T10:12:27;20.60;99.90
2997;DHT22;1508;48.744;9.110;2022-08-19T10:15:13;20.70;99.90
2997;DHT22;1508;48.744;9.110;2022-08-19T10:17:59;20.60;99.90
2997;DHT22;1508;48.744;9.110;2022-08-19T10:20:47;20.60;99.90
2997;DHT22;1508;48.744;9.110;2022-08-19T10:23:33;20.70;99.90
2997;DHT22;1508;48.744;9.110;2022-08-19T10:26:22;20.80;99.90
2997;DHT22;1508;48.744;9.110;2022-08-19T10:29:08;20.90;99.90
2997;DHT22;1508;48.744;9.110;2022-08-19T10:31:54;20.90;99.90
2997;DHT22;1508;48.744;9.110;2022-08-19T10:34:40;21.00;99.90
2997;DHT22;1508;48.744;9.110;2022-08-19T10:37:26;21.00;99.90
2997;DHT22;1508;48.744;9.110;2022-08-19T10:40:12;21.10;99.90
2997;DHT22;1508;48.744;9.110;2022-08-19T10:42:57;21.30;99.90
2997;DHT22;1508;48.744;9.110;2022-08-19T10:45:43;21.30;99.90
2997;DHT22;1508;48.744;9.110;2022-08-19T10:48:34;21.20;99.90
2997;DHT22;1508;48.744;9.110;2022-08-19T10:51:22;21.30;99.90
2997;DHT22;1508;48.744;9.110;2022-08-19T10:54:08;21.20;99.90
2997;DHT22;1508;48.744;9.110;2022-08-19T10:56:54;21.10;99.90
2997;DHT22;1508;48.744;9.110;2022-08-19T10:59:40;21.20;99.90
2997;DHT22;1508;48.744;9.110;2022-08-19T11:02:25;21.30;99.90
2997;DHT22;1508;48.744;9.110;2022-08-19T11:05:12;21.20;99.90
2997;DHT22;1508;48.744;9.110;2022-08-19T11:07:57;21.30;99.90
2997;DHT22;1508;48.744;9.110;2022-08-19T11:10:43;21.30;99.90
2997;DHT22;1508;48.744;9.110;2022-08-19T11:13:31;21.40;99.90
2997;DHT22;1508;48.744;9.110;2022-08-19T11:16:20;21.60;99.90
2997;DHT22;1508;48.744;9.110;2022-08-19T11:19:07;21.80;99.90
2997;DHT22;1508;48.744;9.110;2022-08-19T11:21:53;21.80;99.90
2997;DHT22;1508;48.744;9.110;2022-08-19T11:24:39;21.90;99.90
2997;DHT22;1508;48.744;9.110;2022-08-19T11:27:25;22.00;99.90
2997;DHT22;1508;48.744;9.110;2022-08-19T11:30:12;22.10;99.90
2997;DHT22;1508;48.744;9.110;2022-08-19T11:32:58;22.20;99.90
2997;DHT22;1508;48.744;9.110;2022-08-19T11:35:44;22.30;99.90
2997;DHT22;1508;48.744;9.110;2022-08-19T11:38:30;22.40;99.90
2997;DHT22;1508;48.744;9.110;2022-08-19T11:41:18;22.40;99.90
2997;DHT22;1508;48.744;9.110;2022-08-19T11:44:05;22.40;99.90
2997;DHT22;1508;48.744;9.110;2022-08-19T11:46:51;22.40;99.90
2997;DHT22;1508;48.744;9.110;2022-08-19T11:49:37;22.60;99.90
2997;DHT22;1508;48.744;9.110;2022-08-19T11:52:22;22.90;99.90
2997;DHT22;1508;48.744;9.110;2022-08-19T11:55:09;22.90;99.90
2997;DHT22;1508;48.744;9.110;2022-08-19T11:57:55;22.80;99.90
2997;DHT22;1508;48.744;9.110;2022-08-19T12:00:41;22.90;99.90
2997;DHT22;1508;48.744;9.110;2022-08-19T12:03:27;22.80;99.90
2997;DHT22;1508;48.744;9.110;2022-08-19T12:06:17;22.90;99.90
2997;DHT22;1508;48.744;9.110;2022-08-19T12:09:06;22.90;99.90
2997;DHT22;1508;48.744;9.110;2022-08-19T12:11:52;22.90;99.90
2997;DHT22;1508;48.744;9.110;2022-08-19T12:14:38;22.90;99.90
2997;DHT22;1508;48.744;9.110;2022-08-19T12:17:28;22.80;99.90
2997;DHT22;1508;48.744;9.110;2022-08-19T12:20:13;22.90;99.90
2997;DHT22;1508;48.744;9.110;2022-08-19T12:22:59;22.90;99.90
2997;DHT22;1508;48.744;9.110;2022-08-19T12:25:47;22.90;99.90
2997;DHT22;1508;48.744;9.110;2022-08-19T12:28:34;23.00;99.90
2997;DHT22;1508;48.744;9.110;2022-08-19T12:31:20;23.00;99.90
2997;DHT22;1508;48.744;9.110;2022-08-19T12:34:06;23.30;99.90
2997;DHT22;1508;48.744;9.110;2022-08-19T12:36:51;23.30;99.90
2997;DHT22;1508;48.744;9.110;2022-08-19T12:39:40;23.20;99.90
2997;DHT22;1508;48.744;9.110;2022-08-19T12:42:26;23.30;99.90
2997;DHT22;1508;48.744;9.110;2022-08-19T12:45:13;23.20;99.90
2997;DHT22;1508;48.744;9.110;2022-08-19T12:47:59;23.10;99.90
2997;DHT22;1508;48.744;9.110;2022-08-19T12:50:45;23.20;99.90
2997;DHT22;1508;48.744;9.110;2022-08-19T12:53:31;23.20;99.90
2997;DHT22;1508;48.744;9.110;2022-08-19T12:56:17;23.30;99.90
2997;DHT22;1508;48.744;9.110;2022-08-19T12:59:03;23.30;99.90
2997;DHT22;1508;48.744;9.110;2022-08-19T13:01:49;23.40;99.90
2997;DHT22;1508;48.744;9.110;2022-08-19T13:04:35;23.50;99.90
2997;DHT22;1508;48.744;9.110;2022-08-19T13:07:21;23.50;99.90
2997;DHT22;1508;48.744;9.110;2022-08-19T13:10:09;23.60;99.90
2997;DHT22;1508;48.744;9.110;2022-08-19T13:12:56;23.70;99.90
2997;DHT22;1508;48.744;9.110;2022-08-19T13:15:42;23.80;99.90
2997;DHT22;1508;48.744;9.110;2022-08-19T13:18:28;23.90;99.90
2997;DHT22;1508;48.744;9.110;2022-08-19T13:21:15;23.90;99.90
2997;DHT22;1508;48.744;9.110;2022-08-19T13:24:01;24.00;99.90
2997;DHT22;1508;48.744;9.110;2022-08-19T13:26:46;23.80;99.90
2997;DHT22;1508;48.744;9.110;2022-08-19T13:29:32;23.80;99.90
2997;DHT22;1508;48.744;9.110;2022-08-19T13:32:18;23.60;99.90
2997;DHT22;1508;48.744;9.110;2022-08-19T13:35:04;23.40;99.90
2997;DHT22;1508;48.744;9.110;2022-08-19T13:37:50;23.30;99.90
2997;DHT22;1508;48.744;9.110;2022-08-19T13:40:37;23.40;99.90
2997;DHT22;1508;48.744;9.110;2022-08-19T13:43:26;23.40;99.90
2997;DHT22;1508;48.744;9.110;2022-08-19T13:46:12;23.30;99.90
2997;DHT22;1508;48.744;9.110;2022-08-19T13:48:58;23.20;99.90
2997;DHT22;1508;48.744;9.110;2022-08-19T13:51:44;23.20;99.90
2997;DHT22;1508;48.744;9.110;2022-08-19T13:54:30;23.00;99.90
2997;DHT22;1508;48.744;9.110;2022-08-19T13:57:16;22.70;99.90
2997;DHT22;1508;48.744;9.110;2022-08-19T14:00:03;22.60;99.90
2997;DHT22;1508;48.744;9.110;2022-08-19T14:02:51;22.50;99.90
2997;DHT22;1508;48.744;9.110;2022-08-19T14:05:37;22.40;99.90
2997;DHT22;1508;48.744;9.110;2022-08-19T14:08:23;22.50;99.90
2997;DHT22;1508;48.744;9.110;2022-08-19T14:11:09;22.50;99.90
2997;DHT22;1508;48.744;9.110;2022-08-19T14:13:55;22.30;99.90
2997;DHT22;1508;48.744;9.110;2022-08-19T14:16:41;22.30;99.90
2997;DHT22;1508;48.744;9.110;2022-08-19T14:19:27;22.30;99.90
2997;DHT22;1508;48.744;9.110;2022-08-19T14:22:13;22.30;99.90
2997;DHT22;1508;48.744;9.110;2022-08-19T14:24:59;22.50;99.90
2997;DHT22;1508;48.744;9.110;2022-08-19T14:27:46;22.60;99.90
2997;DHT22;1508;48.744;9.110;2022-08-19T14:30:33;23.00;99.90
2997;DHT22;1508;48.744;9.110;2022-08-19T14:33:20;23.20;99.90
2997;DHT22;1508;48.744;9.110;2022-08-19T14:36:06;23.30;99.90
2997;DHT22;1508;48.744;9.110;2022-08-19T14:38:52;23.20;99.90
2997;DHT22;1508;48.744;9.110;2022-08-19T14:41:40;23.40;99.90
2997;DHT22;1508;48.744;9.110;2022-08-19T14:44:26;23.50;99.90
2997;DHT22;1508;48.744;9.110;2022-08-19T14:47:12;23.50;99.90
2997;DHT22;1508;48.744;9.110;2022-08-19T14:49:58;23.40;99.90
2997;DHT22;1508;48.744;9.110;2022-08-19T14:52:47;23.50;99.90
2997;DHT22;1508;48.744;9.110;2022-08-19T14:55:34;23.80;99.90
2997;DHT22;1508;48.744;9.110;2022-08-19T14:58:20;23.80;99.90
2997;DHT22;1508;48.744;9.110;2022-08-19T15:01:06;23.80;99.90
2997;DHT22;1508;48.744;9.110;2022-08-19T15:03:52;23.80;99.90
2997;DHT22;1508;48.744;9.110;2022-08-19T15:06:39;23.80;99.90
2997;DHT22;1508;48.744;9.110;2022-08-19T15:09:25;23.80;99.90
2997;DHT22;1508;48.744;9.110;2022-08-19T15:12:10;23.70;99.90
2997;DHT22;1508;48.744;9.110;2022-08-19T15:14:56;23.70;99.90
2997;DHT22;1508;48.744;9.110;2022-08-19T15:17:43;23.80;99.90
2997;DHT22;1508;48.744;9.110;2022-08-19T15:20:29;23.80;99.90
2997;DHT22;1508;48.744;9.110;2022-08-19T15:23:17;24.10;99.90
2997;DHT22;1508;48.744;9.110;2022-08-19T15:26:04;24.30;99.90
2997;DHT22;1508;48.744;9.110;2022-08-19T15:28:49;24.40;99.90
2997;DHT22;1508;48.744;9.110;2022-08-19T15:31:35;24.50;99.90
2997;DHT22;1508;48.744;9.110;2022-08-19T15:34:22;24.70;99.90
2997;DHT22;1508;48.744;9.110;2022-08-19T15:37:08;24.80;99.90
2997;DHT22;1508;48.744;9.110;2022-08-19T15:39:54;25.00;99.90
2997;DHT22;1508;48.744;9.110;2022-08-19T15:42:40;24.70;99.90
2997;DHT22;1508;48.744;9.110;2022-08-19T15:45:26;24.60;99.90
2997;DHT22;1508;48.744;9.110;2022-08-19T15:48:12;24.60;99.90
2997;DHT22;1508;48.744;9.110;2022-08-19T15:50:58;24.70;99.90
2997;DHT22;1508;48.744;9.110;2022-08-19T15:53:44;24.60;99.90
2997;DHT22;1508;48.744;9.110;2022-08-19T15:56:30;24.30;99.90
2997;DHT22;1508;48.744;9.110;2022-08-19T15:59:16;24.40;99.90
2997;DHT22;1508;48.744;9.110;2022-08-19T16:02:02;24.50;99.90
2997;DHT22;1508;48.744;9.110;2022-08-19T16:04:50;24.60;99.90
2997;DHT22;1508;48.744;9.110;2022-08-19T16:07:37;24.60;99.90
2997;DHT22;1508;48.744;9.110;2022-08-19T16:10:23;24.50;99.90
2997;DHT22;1508;48.744;9.110;2022-08-19T16:13:08;24.50;99.90
2997;DHT22;1508;48.744;9.110;2022-08-19T16:15:54;24.40;99.90
2997;DHT22;1508;48.744;9.110;2022-08-19T16:18:40;24.40;99.90
2997;DHT22;1508;48.744;9.110;2022-08-19T16:21:27;24.40;99.90
2997;DHT22;1508;48.744;9.110;2022-08-19T16:24:17;24.40;99.90
2997;DHT22;1508;48.744;9.110;2022-08-19T16:27:03;24.50;99.90
2997;DHT22;1508;48.744;9.110;2022-08-19T16:29:49;24.60;99.90
2997;DHT22;1508;48.744;9.110;2022-08-19T16:32:34;24.80;99.90
2997;DHT22;1508;48.744;9.110;2022-08-19T16:35:20;24.80;99.90
2997;DHT22;1508;48.744;9.110;2022-08-19T16:38:06;24.70;99.90
2997;DHT22;1508;48.744;9.110;2022-08-19T16:40:52;24.50;99.90
2997;DHT22;1508;48.744;9.110;2022-08-19T16:43:39;24.30;99.90
2997;DHT22;1508;48.744;9.110;2022-08-19T16:46:25;24.20;99.90
2997;DHT22;1508;48.744;9.110;2022-08-19T16:49:11;24.00;99.90
2997;DHT22;1508;48.744;9.110;2022-08-19T16:51:57;23.90;99.90
2997;DHT22;1508;48.744;9.110;2022-08-19T16:54:43;23.60;99.90
2997;DHT22;1508;48.744;9.110;2022-08-19T16:57:28;23.50;99.90
2997;DHT22;1508;48.744;9.110;2022-08-19T17:00:14;23.40;99.90
2997;DHT22;1508;48.744;9.110;2022-08-19T17:03:07;23.40;99.90
2997;DHT22;1508;48.744;9.110;2022-08-19T17:05:56;23.10;99.90
2997;DHT22;1508;48.744;9.110;2022-08-19T17:08:42;23.00;99.90
2997;DHT22;1508;48.744;9.110;2022-08-19T17:11:29;22.80;99.90
2997;DHT22;1508;48.744;9.110;2022-08-19T17:14:15;22.50;99.90
2997;DHT22;1508;48.744;9.110;2022-08-19T17:17:01;22.40;99.90
2997;DHT22;1508;48.744;9.110;2022-08-19T17:19:47;22.30;99.90
2997;DHT22;1508;48.744;9.110;2022-08-19T17:22:32;22.30;99.90
2997;DHT22;1508;48.744;9.110;2022-08-19T17:25:18;22.30;99.90
2997;DHT22;1508;48.744;9.110;2022-08-19T17:28:11;22.20;99.90
2997;DHT22;1508;48.744;9.110;2022-08-19T17:30:57;22.20;99.90
2997;DHT22;1508;48.744;9.110;2022-08-19T17:33:43;22.10;99.90
2997;DHT22;1508;48.744;9.110;2022-08-19T17:36:31;22.00;99.90
2997;DHT22;1508;48.744;9.110;2022-08-19T17:39:17;22.00;99.90
2997;DHT22;1508;48.744;9.110;2022-08-19T17:42:03;22.00;99.90
2997;DHT22;1508;48.744;9.110;2022-08-19T17:44:49;21.90;99.90
2997;DHT22;1508;48.744;9.110;2022-08-19T17:47:34;21.80;99.90
2997;DHT22;1508;48.744;9.110;2022-08-19T17:50:21;21.70;99.90
2997;DHT22;1508;48.744;9.110;2022-08-19T17:53:06;21.60;99.90
2997;DHT22;1508;48.744;9.110;2022-08-19T17:55:52;21.50;99.90
2997;DHT22;1508;48.744;9.110;2022-08-19T17:58:39;21.40;99.90
2997;DHT22;1508;48.744;9.110;2022-08-19T18:01:26;21.40;99.90
2997;DHT22;1508;48.744;9.110;2022-08-19T18:04:12;21.40;99.90
2997;DHT22;1508;48.744;9.110;2022-08-19T18:06:58;21.40;99.90
2997;DHT22;1508;48.744;9.110;2022-08-19T18:09:44;21.20;99.90
2997;DHT22;1508;48.744;9.110;2022-08-19T18:12:30;21.20;99.90